createdAt,value
2022-11-29T00:00:16.051Z,80.95
2022-11-29T00:03:18.156Z,76.98
2022-11-29T00:06:22.492Z,76.88
2022-11-29T00:09:24.492Z,76.93
2022-11-29T00:12:26.520Z,77.52
2022-11-29T00:15:28.561Z,78.16
2022-11-29T00:18:30.573Z,78.82
2022-11-29T00:21:32.604Z,77.70
2022-11-29T00:24:34.782Z,76.97
2022-11-29T00:27:36.811Z,76.93
2022-11-29T00:30:39.018Z,79.02
2022-11-29T00:33:41.148Z,79.20
2022-11-29T00:36:43.250Z,77.59
2022-11-29T00:39:45.300Z,82.91
2022-11-29T00:42:47.339Z,83.28
2022-11-29T00:45:49.518Z,81.56
2022-11-29T00:48:51.580Z,81.22
2022-11-29T00:51:53.607Z,79.77
2022-11-29T00:54:55.638Z,77.79
2022-11-29T00:57:57.673Z,77.38
2022-11-29T01:00:59.817Z,77.74
2022-11-29T01:04:02.160Z,77.25
2022-11-29T01:07:04.194Z,77.65
2022-11-29T01:10:07.418Z,77.91
2022-11-29T01:13:09.837Z,76.65
2022-11-29T01:16:12.002Z,75.97
2022-11-29T01:19:14.130Z,76.63
2022-11-29T01:22:16.230Z,77.63
2022-11-29T01:25:19.413Z,75.35
2022-11-29T01:28:21.867Z,75.38
2022-11-29T01:31:32.441Z,75.44
2022-11-29T01:34:34.515Z,76.17
2022-11-29T01:37:36.588Z,76.23
2022-11-29T01:40:38.630Z,75.19
2022-11-29T01:44:14.409Z,76.12
2022-11-29T01:47:17.911Z,76.21
2022-11-29T01:50:19.970Z,76.43
2022-11-29T01:53:22.332Z,75.31
2022-11-29T01:56:24.732Z,75.71
2022-11-29T01:59:27.837Z,75.12
2022-11-29T02:02:44.783Z,74.96
2022-11-29T02:05:49.371Z,75.64
2022-11-29T02:08:51.460Z,76.18
2022-11-29T02:12:20.371Z,77.09
2022-11-29T02:15:44.166Z,75.95
2022-11-29T02:19:11.488Z,74.95
2022-11-29T02:22:48.541Z,74.85
2022-11-29T02:26:07.083Z,76.10
2022-11-29T02:29:33.722Z,76.41
2022-11-29T02:33:02.434Z,76.71
2022-11-29T02:36:40.069Z,77.63
2022-11-29T02:40:19.554Z,75.80
2022-11-29T02:43:51.490Z,75.43
2022-11-29T02:47:26.800Z,76.14
2022-11-29T02:50:39.597Z,76.04
2022-11-29T02:54:18.202Z,76.95
2022-11-29T02:57:30.412Z,76.99
2022-11-29T03:00:32.780Z,78.44
2022-11-29T03:04:09.421Z,78.43
2022-11-29T03:07:39.597Z,75.53
2022-11-29T03:11:03.435Z,74.71
2022-11-29T03:14:20.885Z,76.42
2022-11-29T03:17:32.876Z,79.92
2022-11-29T03:21:05.645Z,78.25
2022-11-29T03:24:16.147Z,77.29
2022-11-29T03:27:30.672Z,75.89
2022-11-29T03:30:34.917Z,76.23
2022-11-29T03:33:54.653Z,76.00
2022-11-29T03:37:18.899Z,77.89
2022-11-29T03:40:51.809Z,77.18
2022-11-29T03:44:31.680Z,75.94
2022-11-29T03:48:02.309Z,76.26
2022-11-29T03:51:06.200Z,75.88
2022-11-29T03:54:11.255Z,75.67
2022-11-29T03:57:14.066Z,77.05
2022-11-29T04:00:16.766Z,76.70
2022-11-29T04:04:03.514Z,77.32
2022-11-29T04:07:24.102Z,76.81
2022-11-29T04:11:03.629Z,76.66
2022-11-29T04:15:00.746Z,76.15
2022-11-29T04:18:17.762Z,76.64
2022-11-29T04:21:50.553Z,77.06
2022-11-29T04:25:19.932Z,77.05
2022-11-29T04:28:49.315Z,76.72
2022-11-29T04:32:00.232Z,77.03
2022-11-29T04:35:28.516Z,75.85
2022-11-29T04:39:14.883Z,76.25
2022-11-29T04:43:06.202Z,77.76
2022-11-29T04:46:26.123Z,77.54
2022-11-29T04:50:04.847Z,77.23
2022-11-29T04:53:19.853Z,76.85
2022-11-29T04:56:40.318Z,76.70
2022-11-29T05:00:06.548Z,76.03
2022-11-29T05:03:16.713Z,77.23
2022-11-29T05:06:53.823Z,78.88
2022-11-29T05:10:28.733Z,76.73
2022-11-29T05:14:17.812Z,79.02
2022-11-29T05:18:08.999Z,77.89
2022-11-29T05:21:41.505Z,76.79
2022-11-29T05:25:25.081Z,77.36
2022-11-29T05:28:33.732Z,77.70
2022-11-29T05:32:03.705Z,76.91
2022-11-29T05:35:35.842Z,76.11
2022-11-29T05:39:05.175Z,76.58
2022-11-29T05:42:26.229Z,77.02
2022-11-29T05:45:48.126Z,76.95
2022-11-29T05:49:01.412Z,78.63
2022-11-29T05:52:56.372Z,77.45
2022-11-29T05:56:40.362Z,78.42
2022-11-29T05:59:42.890Z,81.09
2022-11-29T06:02:59.518Z,79.72
2022-11-29T06:06:39.734Z,75.56
2022-11-29T06:09:49.996Z,75.81
2022-11-29T06:13:25.860Z,77.32
2022-11-29T06:16:58.542Z,77.15
2022-11-29T06:20:33.482Z,77.03
2022-11-29T06:23:59.720Z,76.97
2022-11-29T06:27:19.608Z,76.18
2022-11-29T06:30:26.353Z,76.89
2022-11-29T06:33:47.100Z,75.34
2022-11-29T06:36:56.956Z,75.72
2022-11-29T06:39:59.403Z,76.23
2022-11-29T06:43:01.797Z,75.23
2022-11-29T06:46:34.008Z,76.34
2022-11-29T06:49:47.024Z,75.54
2022-11-29T06:52:59.622Z,75.02
2022-11-29T06:56:10.493Z,73.32
2022-11-29T06:59:39.859Z,73.19
2022-11-29T07:03:18.673Z,73.29
2022-11-29T07:06:28.358Z,73.46
2022-11-29T07:09:34.717Z,72.93
2022-11-29T07:12:37.178Z,74.75
2022-11-29T07:16:02.570Z,74.02
2022-11-29T07:20:04.710Z,74.36
2022-11-29T07:23:24.394Z,76.38
2022-11-29T07:26:30.613Z,74.14
2022-11-29T07:30:12.802Z,74.01
2022-11-29T07:33:33.684Z,74.29
2022-11-29T07:36:47.533Z,73.93
2022-11-29T07:40:25.333Z,75.04
2022-11-29T07:43:40.023Z,77.20
2022-11-29T07:46:42.186Z,76.99
2022-11-29T07:49:44.374Z,77.56
2022-11-29T07:52:47.410Z,77.15
2022-11-29T07:55:49.541Z,75.63
2022-11-29T07:58:51.725Z,74.60
2022-11-29T08:01:53.984Z,72.46
2022-11-29T08:04:56.065Z,73.14
2022-11-29T08:07:58.253Z,74.34
2022-11-29T08:11:00.333Z,74.71
2022-11-29T08:14:03.669Z,75.24
2022-11-29T08:17:05.722Z,74.09
2022-11-29T08:20:08.432Z,73.97
2022-11-29T08:23:12.720Z,75.47
2022-11-29T08:26:15.566Z,75.97
2022-11-29T08:29:17.684Z,76.46
2022-11-29T08:32:19.752Z,74.33
2022-11-29T08:35:22.725Z,72.21
2022-11-29T08:38:24.903Z,72.88
2022-11-29T08:41:26.935Z,71.64
2022-11-29T08:44:29.559Z,72.58
2022-11-29T08:47:37.772Z,71.67
2022-11-29T08:50:39.879Z,72.37
2022-11-29T08:53:41.992Z,71.71
2022-11-29T09:00:07.236Z,71.86
2022-11-29T09:03:27.608Z,71.63
2022-11-29T09:06:38.589Z,71.76
2022-11-29T09:09:40.680Z,71.26
2022-11-29T09:12:44.412Z,71.52
2022-11-29T09:15:46.569Z,71.40
2022-11-29T09:18:51.940Z,70.14
2022-11-29T09:21:54.409Z,70.41
2022-11-29T09:24:56.448Z,70.20
2022-11-29T09:28:01.341Z,71.10
2022-11-29T09:31:10.920Z,70.20
2022-11-29T09:34:14.778Z,69.58
2022-11-29T09:37:17.173Z,68.95
2022-11-29T09:40:22.255Z,68.33
2022-11-29T09:44:03.132Z,68.13
2022-11-29T09:47:26.090Z,68.30
2022-11-29T09:50:36.629Z,68.48
2022-11-29T09:54:16.290Z,67.39
2022-11-29T09:57:19.294Z,68.21
2022-11-29T10:00:21.592Z,67.12
2022-11-29T10:03:33.956Z,67.56
2022-11-29T10:06:40.498Z,67.17
2022-11-29T10:09:56.561Z,66.65
2022-11-29T10:13:30.938Z,66.38
2022-11-29T10:16:53.895Z,65.27
2022-11-29T10:20:11.246Z,65.79
2022-11-29T10:23:33.379Z,65.52
2022-11-29T10:26:35.709Z,65.01
2022-11-29T10:29:38.380Z,64.36
2022-11-29T10:32:40.485Z,65.89
2022-11-29T10:35:42.541Z,65.60
2022-11-29T10:38:44.616Z,64.59
2022-11-29T10:41:48.122Z,64.78
2022-11-29T10:44:50.157Z,62.85
2022-11-29T10:47:54.765Z,63.19
2022-11-29T10:50:56.910Z,63.61
2022-11-29T10:54:21.046Z,63.97
2022-11-29T10:57:23.247Z,64.61
2022-11-29T11:00:25.362Z,62.50
2022-11-29T11:04:07.395Z,60.57
2022-11-29T11:07:33.369Z,61.62
2022-11-29T11:10:35.589Z,61.42
2022-11-29T11:13:39.151Z,62.18
2022-11-29T11:16:41.256Z,62.66
2022-11-29T11:19:44.407Z,60.54
2022-11-29T11:23:00.223Z,59.26
2022-11-29T11:26:04.902Z,57.49
2022-11-29T11:29:06.945Z,56.80
2022-11-29T11:32:19.015Z,55.69
2022-11-29T11:35:24.373Z,55.58
2022-11-29T11:38:26.408Z,56.02
2022-11-29T11:41:54.493Z,55.97
2022-11-29T11:44:56.541Z,54.37
2022-11-29T11:48:12.717Z,54.96
2022-11-29T11:51:25.558Z,54.20
2022-11-29T11:54:28.293Z,52.70
2022-11-29T11:57:30.406Z,51.73
2022-11-29T12:01:06.214Z,50.81
2022-11-29T12:04:21.594Z,51.10
2022-11-29T12:08:09.789Z,51.57
2022-11-29T12:11:13.511Z,54.30
2022-11-29T12:14:24.344Z,53.70
2022-11-29T12:17:36.577Z,51.61
2022-11-29T12:21:17.688Z,49.50
2022-11-29T12:24:26.569Z,49.78
2022-11-29T12:27:28.876Z,50.35
2022-11-29T12:30:30.969Z,50.07
2022-11-29T12:34:00.620Z,49.27
2022-11-29T12:37:15.099Z,48.96
2022-11-29T12:40:44.625Z,49.25
2022-11-29T12:44:21.833Z,51.29
2022-11-29T12:47:52.298Z,53.27
2022-11-29T12:51:25.262Z,51.46
2022-11-29T12:54:37.871Z,48.48
2022-11-29T12:57:57.431Z,49.22
2022-11-29T13:01:17.401Z,49.48
2022-11-29T13:04:51.763Z,46.78
2022-11-29T13:08:51.363Z,48.57
2022-11-29T13:12:00.081Z,47.96
2022-11-29T13:15:20.924Z,47.13
2022-11-29T13:18:55.232Z,51.51
2022-11-29T13:22:06.673Z,47.00
2022-11-29T13:25:35.576Z,49.69
2022-11-29T13:28:42.243Z,49.02
2022-11-29T13:31:45.543Z,51.29
2022-11-29T13:34:47.838Z,53.92
2022-11-29T13:38:03.883Z,53.32
2022-11-29T13:41:29.477Z,52.52
2022-11-29T13:44:59.094Z,51.74
2022-11-29T13:48:02.249Z,58.22
2022-11-29T13:51:33.185Z,66.26
2022-11-29T13:54:35.232Z,67.17
2022-11-29T13:58:15.371Z,71.39
2022-11-29T14:01:15.599Z,71.71
2022-11-29T14:04:35.963Z,71.64
2022-11-29T14:07:38.015Z,73.99
2022-11-29T14:10:40.080Z,74.07
2022-11-29T14:13:42.005Z,73.47
2022-11-29T14:16:43.922Z,72.36
2022-11-29T14:19:45.964Z,74.43
2022-11-29T14:23:09.023Z,75.60
2022-11-29T14:26:10.928Z,75.96
2022-11-29T14:29:48.316Z,75.85
2022-11-29T14:32:58.865Z,77.44
2022-11-29T14:36:18.683Z,76.68
2022-11-29T14:39:42.973Z,75.12
2022-11-29T14:42:48.465Z,76.21
2022-11-29T14:46:11.624Z,77.33
2022-11-29T14:49:24.704Z,79.06
2022-11-29T14:52:37.994Z,77.95
2022-11-29T14:55:40.089Z,77.41
2022-11-29T14:58:42.150Z,76.96
2022-11-29T15:01:44.460Z,78.10
2022-11-29T15:04:48.306Z,79.95
2022-11-29T15:08:19.220Z,80.41
2022-11-29T15:11:52.185Z,78.16
2022-11-29T15:15:00.067Z,78.04
2022-11-29T15:18:42.341Z,79.57
2022-11-29T15:22:07.462Z,79.36
2022-11-29T15:25:23.070Z,79.23
2022-11-29T15:28:29.348Z,79.92
2022-11-29T15:31:31.450Z,79.76
2022-11-29T15:34:45.134Z,79.56
2022-11-29T15:37:48.795Z,81.52
2022-11-29T15:40:58.610Z,80.22
2022-11-29T15:44:06.153Z,80.93
2022-11-29T15:47:15.984Z,81.06
2022-11-29T15:50:25.924Z,82.22
2022-11-29T15:53:34.206Z,82.96
2022-11-29T15:56:52.009Z,81.31
2022-11-29T16:00:00.391Z,80.26
2022-11-29T16:03:04.343Z,80.40
2022-11-29T16:06:19.892Z,81.42
2022-11-29T16:09:59.736Z,80.72
2022-11-29T16:13:08.084Z,81.02
2022-11-29T16:16:22.682Z,81.56
2022-11-29T16:19:35.592Z,81.84
2022-11-29T16:22:37.644Z,80.95
2022-11-29T16:26:00.492Z,82.26
2022-11-29T16:29:02.697Z,83.26
2022-11-29T16:32:28.549Z,82.85
2022-11-29T16:35:33.137Z,82.27
2022-11-29T16:38:35.356Z,82.29
2022-11-29T16:41:38.660Z,81.07
2022-11-29T16:44:40.636Z,81.78
2022-11-29T16:47:53.005Z,80.65
2022-11-29T16:51:48.068Z,82.06
2022-11-29T16:54:50.571Z,82.00
2022-11-29T16:57:52.618Z,81.43
2022-11-29T17:00:55.398Z,82.33
2022-11-29T17:03:59.553Z,83.37
2022-11-29T17:07:01.621Z,82.85
2022-11-29T17:10:06.485Z,82.73
2022-11-29T17:13:11.854Z,82.89
2022-11-29T17:16:15.335Z,82.45
2022-11-29T17:19:18.596Z,83.59
2022-11-29T17:22:20.686Z,82.32
2022-11-29T17:25:22.737Z,82.21
2022-11-29T17:28:24.800Z,83.85
2022-11-29T17:31:26.909Z,82.91
2022-11-29T17:34:29.071Z,83.67
2022-11-29T17:37:31.386Z,84.32
2022-11-29T17:40:33.533Z,85.31
2022-11-29T17:43:36.545Z,83.74
2022-11-29T17:46:38.819Z,82.44
2022-11-29T17:49:40.940Z,83.66
2022-11-29T17:52:44.123Z,82.37
2022-11-29T17:55:46.142Z,83.20
2022-11-29T17:58:52.781Z,83.45
2022-11-29T18:01:54.857Z,83.08
2022-11-29T18:04:56.920Z,83.18
2022-11-29T18:07:59.694Z,83.08
2022-11-29T18:11:10.574Z,83.79
2022-11-29T18:14:21.051Z,84.90
2022-11-29T18:17:23.434Z,84.58
2022-11-29T18:20:25.562Z,85.19
2022-11-29T18:23:31.046Z,84.59
2022-11-29T18:26:34.085Z,83.61
2022-11-29T18:29:39.300Z,83.70
2022-11-29T18:32:47.682Z,84.16
2022-11-29T18:35:49.814Z,83.61
2022-11-29T18:39:10.097Z,83.09
2022-11-29T18:42:12.696Z,83.57
2022-11-29T18:45:14.750Z,82.60
2022-11-29T18:48:16.777Z,83.66
2022-11-29T18:51:20.198Z,84.52
2022-11-29T18:54:22.232Z,83.68
2022-11-29T18:57:24.302Z,84.63
2022-11-29T19:00:26.442Z,85.08
2022-11-29T19:03:28.534Z,83.84
2022-11-29T19:06:38.968Z,85.47
2022-11-29T19:09:42.016Z,83.64
2022-11-29T19:12:44.160Z,83.94
2022-11-29T19:15:53.800Z,83.04
2022-11-29T19:18:57.135Z,83.87
2022-11-29T19:21:59.791Z,84.09
2022-11-29T19:25:01.864Z,86.56
2022-11-29T19:28:05.904Z,86.55
2022-11-29T19:31:13.540Z,85.86
2022-11-29T19:34:15.683Z,85.41
2022-11-29T19:37:17.750Z,84.86
2022-11-29T19:40:20.052Z,85.27
2022-11-29T19:43:22.237Z,83.82
2022-11-29T19:46:29.978Z,83.53
2022-11-29T19:49:32.064Z,84.85
2022-11-29T19:52:34.821Z,83.94
2022-11-29T19:55:43.817Z,85.33
2022-11-29T19:58:46.368Z,85.18
2022-11-29T20:01:48.466Z,85.67
2022-11-29T20:04:51.825Z,85.35
2022-11-29T20:07:53.914Z,85.66
2022-11-29T20:10:56.093Z,86.51
2022-11-29T20:14:00.158Z,85.56
2022-11-29T20:17:02.254Z,85.10
2022-11-29T20:20:05.030Z,85.62
2022-11-29T20:23:07.144Z,86.00
2022-11-29T20:26:20.068Z,84.81
2022-11-29T20:29:27.018Z,85.97
2022-11-29T20:32:29.193Z,83.84
2022-11-29T20:35:31.420Z,85.22
2022-11-29T20:39:12.767Z,87.32
2022-11-29T20:42:28.626Z,84.70
2022-11-29T20:45:31.060Z,84.69
2022-11-29T20:48:33.374Z,85.78
2022-11-29T20:51:44.824Z,87.11
2022-11-29T20:54:46.950Z,88.15
2022-11-29T20:57:49.885Z,88.22
2022-11-29T21:00:53.399Z,86.31
2022-11-29T21:03:55.472Z,87.72
2022-11-29T21:06:58.065Z,84.85
2022-11-29T21:10:01.610Z,86.66
2022-11-29T21:13:04.246Z,88.00
2022-11-29T21:16:07.029Z,87.17
2022-11-29T21:19:10.672Z,88.47
2022-11-29T21:22:47.434Z,88.31
2022-11-29T21:26:09.749Z,87.80
2022-11-29T21:29:16.917Z,85.60
2022-11-29T21:32:23.757Z,87.54
2022-11-29T21:35:26.307Z,87.47
2022-11-29T21:38:28.367Z,85.84
2022-11-29T21:41:30.433Z,86.81
2022-11-29T21:44:32.479Z,87.11
2022-11-29T21:47:34.581Z,86.47
2022-11-29T21:50:36.658Z,86.71
2022-11-29T21:53:39.423Z,86.13
2022-11-29T21:56:41.479Z,85.68
2022-11-29T21:59:43.542Z,87.74
2022-11-29T22:02:45.641Z,87.33
2022-11-29T22:05:47.789Z,86.96
2022-11-29T22:08:49.950Z,86.37
2022-11-29T22:11:51.970Z,85.51
2022-11-29T22:14:54.399Z,86.91
2022-11-29T22:17:56.497Z,86.22
2022-11-29T22:21:03.553Z,87.26
2022-11-29T22:24:06.765Z,87.49
2022-11-29T22:27:08.833Z,86.98
2022-11-29T22:30:11.521Z,86.89
2022-11-29T22:33:13.728Z,88.07
2022-11-29T22:36:15.869Z,86.64
2022-11-29T22:39:17.903Z,88.13
2022-11-29T22:42:19.924Z,88.29
2022-11-29T22:45:21.936Z,87.85
2022-11-29T22:48:23.951Z,89.04
2022-11-29T22:51:31.603Z,87.46
2022-11-29T22:54:33.639Z,87.68
2022-11-29T22:57:35.696Z,87.71
2022-11-29T23:00:43.936Z,87.72
2022-11-29T23:03:48.465Z,87.52
2022-11-29T23:06:50.536Z,88.20
2022-11-29T23:09:52.569Z,87.12
2022-11-29T23:12:54.609Z,90.13
2022-11-29T23:15:56.654Z,87.42
2022-11-29T23:18:59.063Z,87.29
2022-11-29T23:22:01.167Z,87.16
2022-11-29T23:25:03.320Z,86.73
2022-11-29T23:28:05.369Z,88.63
2022-11-29T23:31:07.439Z,88.38
2022-11-29T23:34:09.544Z,86.98
2022-11-29T23:37:12.766Z,88.28
2022-11-29T23:40:14.862Z,87.61
2022-11-29T23:43:16.942Z,87.78
2022-11-29T23:46:23.506Z,89.22
2022-11-29T23:49:25.568Z,88.81
2022-11-29T23:52:27.637Z,86.81
2022-11-29T23:55:29.668Z,87.93
2022-11-29T23:58:31.974Z,88.26
